createdAt,value
2019-04-30T00:00:09.695Z,11.60
2019-04-30T00:02:46.004Z,11.50
2019-04-30T00:05:18.791Z,11.60
2019-04-30T00:07:50.747Z,11.50
2019-04-30T00:10:17.479Z,11.60
2019-04-30T00:12:46.761Z,11.60
2019-04-30T00:15:19.433Z,11.60
2019-04-30T00:17:52.628Z,11.60
2019-04-30T00:20:18.680Z,11.60
2019-04-30T00:22:50.383Z,11.60
2019-04-30T00:25:23.903Z,11.70
2019-04-30T00:27:50.535Z,11.60
2019-04-30T00:30:19.844Z,11.60
2019-04-30T00:32:49.148Z,11.60
2019-04-30T00:35:19.666Z,11.60
2019-04-30T00:37:52.113Z,11.60
2019-04-30T00:40:21.649Z,11.60
2019-04-30T00:42:51.252Z,11.60
2019-04-30T00:45:20.939Z,11.60
2019-04-30T00:47:50.225Z,11.60
2019-04-30T00:50:19.602Z,11.60
2019-04-30T00:52:48.942Z,11.60
2019-04-30T00:55:18.271Z,11.50
2019-04-30T00:57:47.666Z,11.50
2019-04-30T01:00:25.292Z,11.50
2019-04-30T01:03:00.792Z,11.50
2019-04-30T01:05:29.274Z,11.50
2019-04-30T01:07:58.565Z,11.60
2019-04-30T01:10:28.443Z,11.60
2019-04-30T01:13:01.853Z,11.60
2019-04-30T01:15:29.221Z,11.50
2019-04-30T01:17:59.925Z,11.60
2019-04-30T01:20:32.722Z,11.60
2019-04-30T01:23:03.126Z,11.50
2019-04-30T01:25:32.905Z,11.60
2019-04-30T01:28:03.010Z,11.50
2019-04-30T01:30:32.507Z,11.60
2019-04-30T01:33:01.797Z,11.50
2019-04-30T01:35:32.735Z,11.50
2019-04-30T01:38:03.984Z,11.60
2019-04-30T01:40:34.120Z,11.60
2019-04-30T01:43:03.406Z,11.60
2019-04-30T01:45:32.678Z,11.50
2019-04-30T01:48:08.765Z,11.50
2019-04-30T01:50:33.724Z,11.50
2019-04-30T01:53:04.844Z,11.40
2019-04-30T01:56:02.896Z,11.40
2019-04-30T01:59:09.250Z,11.50
2019-04-30T02:01:41.325Z,11.50
2019-04-30T02:04:10.658Z,11.50
2019-04-30T02:06:40.233Z,11.50
2019-04-30T02:09:09.795Z,11.40
2019-04-30T02:11:39.083Z,11.40
2019-04-30T02:14:09.021Z,11.40
2019-04-30T02:16:39.559Z,11.40
2019-04-30T02:19:09.219Z,11.40
2019-04-30T02:21:38.650Z,11.40
2019-04-30T02:24:08.944Z,11.40
2019-04-30T02:26:39.616Z,11.40
2019-04-30T02:29:09.208Z,11.30
2019-04-30T02:31:40.738Z,11.30
2019-04-30T02:34:16.602Z,11.20
2019-04-30T02:37:04.841Z,11.20
2019-04-30T02:39:34.107Z,11.20
2019-04-30T02:42:04.756Z,11.20
2019-04-30T02:44:35.735Z,11.20
2019-04-30T02:47:05.910Z,11.10
2019-04-30T02:49:39.670Z,11.10
2019-04-30T02:52:09.404Z,11.10
2019-04-30T02:54:40.967Z,11.10
2019-04-30T02:57:12.300Z,11.10
2019-04-30T03:00:00.197Z,11.10
2019-04-30T03:02:30.367Z,11.00
2019-04-30T03:05:00.321Z,11.00
2019-04-30T03:07:29.752Z,11.00
2019-04-30T03:10:00.006Z,11.00
2019-04-30T03:12:33.039Z,10.90
2019-04-30T03:15:01.303Z,10.90
2019-04-30T03:18:01.585Z,10.90
2019-04-30T03:20:39.870Z,10.90
2019-04-30T03:23:09.863Z,11.00
2019-04-30T03:25:40.569Z,11.00
2019-04-30T03:28:10.062Z,10.90
2019-04-30T03:30:41.988Z,10.90
2019-04-30T03:33:12.826Z,10.90
2019-04-30T03:35:47.411Z,10.90
2019-04-30T03:38:13.004Z,10.90
2019-04-30T03:40:42.308Z,10.90
2019-04-30T03:43:11.926Z,10.90
2019-04-30T03:45:41.194Z,10.90
2019-04-30T03:48:10.498Z,10.90
2019-04-30T03:50:52.130Z,11.00
2019-04-30T03:53:11.116Z,11.00
2019-04-30T03:55:40.454Z,11.00
2019-04-30T03:58:09.747Z,11.00
2019-04-30T04:01:06.922Z,10.90
2019-04-30T04:03:42.057Z,10.90
2019-04-30T04:06:25.863Z,10.90
2019-04-30T04:09:00.596Z,10.90
2019-04-30T04:11:34.327Z,11.00
2019-04-30T04:14:03.885Z,11.00
2019-04-30T04:16:33.203Z,11.00
2019-04-30T04:19:02.812Z,11.00
2019-04-30T04:21:32.861Z,11.00
2019-04-30T04:24:02.129Z,11.00
2019-04-30T04:26:31.451Z,11.00
2019-04-30T04:29:00.752Z,11.10
2019-04-30T04:31:30.063Z,11.10
2019-04-30T04:34:00.107Z,11.10
2019-04-30T04:36:30.135Z,11.10
2019-04-30T04:39:00.329Z,11.10
2019-04-30T04:41:29.859Z,11.10
2019-04-30T04:44:00.302Z,11.10
2019-04-30T04:46:30.666Z,11.00
2019-04-30T04:49:00.284Z,11.00
2019-04-30T04:51:38.176Z,11.00
2019-04-30T04:54:03.198Z,11.10
2019-04-30T04:56:31.942Z,11.10
2019-04-30T04:59:01.230Z,11.10
2019-04-30T05:01:30.893Z,11.10
2019-04-30T05:04:00.184Z,11.10
2019-04-30T05:06:30.148Z,11.10
2019-04-30T05:09:01.689Z,11.20
2019-04-30T05:11:31.717Z,11.20
2019-04-30T05:14:01.178Z,11.20
2019-04-30T05:16:30.434Z,11.20
2019-04-30T05:19:01.219Z,11.20
2019-04-30T05:21:41.712Z,11.20
2019-04-30T05:24:01.611Z,11.20
2019-04-30T05:26:31.225Z,11.20
2019-04-30T05:29:00.936Z,11.30
2019-04-30T05:31:30.511Z,11.30
2019-04-30T05:33:59.813Z,11.40
2019-04-30T05:36:29.404Z,11.40
2019-04-30T05:38:59.012Z,11.40
2019-04-30T05:41:29.049Z,11.50
2019-04-30T05:43:59.226Z,11.50
2019-04-30T05:46:29.848Z,11.60
2019-04-30T05:48:59.546Z,11.60
2019-04-30T05:51:29.052Z,11.60
2019-04-30T05:53:59.234Z,11.70
2019-04-30T05:56:30.354Z,11.60
2019-04-30T05:59:01.030Z,11.60
2019-04-30T06:01:30.311Z,11.60
2019-04-30T06:04:00.032Z,11.60
2019-04-30T06:06:29.351Z,11.50
2019-04-30T06:09:14.467Z,11.60
2019-04-30T06:12:01.311Z,11.70
2019-04-30T06:14:48.720Z,11.80
2019-04-30T06:17:12.013Z,11.80
2019-04-30T06:19:41.811Z,11.90
2019-04-30T06:22:11.336Z,12.00
2019-04-30T06:24:40.719Z,12.10
2019-04-30T06:27:10.941Z,12.20
2019-04-30T06:29:40.835Z,12.30
2019-04-30T06:32:10.196Z,12.30
2019-04-30T06:34:41.901Z,12.30
2019-04-30T06:37:11.109Z,12.40
2019-04-30T06:39:40.836Z,12.40
2019-04-30T06:42:12.781Z,12.30
2019-04-30T06:44:41.999Z,12.20
2019-04-30T06:47:11.695Z,12.10
2019-04-30T06:49:41.055Z,12.00
2019-04-30T06:52:20.325Z,11.90
2019-04-30T06:54:41.870Z,11.90
2019-04-30T06:57:12.099Z,11.90
2019-04-30T06:59:41.683Z,11.90
2019-04-30T07:02:10.975Z,12.00
2019-04-30T07:04:40.594Z,12.20
2019-04-30T07:07:09.906Z,12.20
2019-04-30T07:10:01.303Z,12.30
2019-04-30T07:12:39.055Z,12.40
2019-04-30T07:15:08.814Z,12.40
2019-04-30T07:17:40.548Z,12.60
2019-04-30T07:20:10.466Z,12.60
2019-04-30T07:22:48.895Z,12.60
2019-04-30T07:25:11.156Z,12.90
2019-04-30T07:27:40.467Z,13.10
2019-04-30T07:30:10.223Z,13.40
2019-04-30T07:32:40.246Z,13.70
2019-04-30T07:35:09.681Z,14.00
2019-04-30T07:37:39.388Z,14.20
2019-04-30T07:40:09.293Z,14.30
2019-04-30T07:42:44.730Z,14.30
2019-04-30T07:45:10.251Z,14.10
2019-04-30T07:47:39.776Z,13.80
2019-04-30T07:50:10.587Z,13.60
2019-04-30T07:52:57.731Z,13.50
2019-04-30T07:55:11.777Z,13.40
2019-04-30T07:57:41.120Z,13.30
2019-04-30T08:00:10.904Z,13.30
2019-04-30T08:02:46.304Z,13.30
2019-04-30T08:05:24.617Z,13.30
2019-04-30T08:07:54.276Z,13.10
2019-04-30T08:10:23.929Z,13.20
2019-04-30T08:12:53.646Z,13.30
2019-04-30T08:15:23.269Z,13.40
2019-04-30T08:18:02.647Z,13.50
2019-04-30T08:20:23.650Z,13.70
2019-04-30T08:22:52.983Z,13.80
2019-04-30T08:25:22.545Z,13.90
2019-04-30T08:27:52.114Z,14.00
2019-04-30T08:30:26.691Z,14.00
2019-04-30T08:32:54.627Z,14.10
2019-04-30T08:35:23.935Z,14.20
2019-04-30T08:37:53.559Z,14.20
2019-04-30T08:40:22.830Z,14.20
2019-04-30T08:42:52.101Z,14.20
2019-04-30T08:45:21.686Z,14.10
2019-04-30T08:47:51.311Z,14.20
2019-04-30T08:50:21.142Z,14.10
2019-04-30T08:52:50.954Z,14.00
2019-04-30T08:55:22.504Z,14.10
2019-04-30T08:57:51.539Z,14.20
2019-04-30T09:00:21.312Z,14.30
2019-04-30T09:02:50.901Z,14.40
2019-04-30T09:05:30.578Z,14.50
2019-04-30T09:08:00.167Z,14.60
2019-04-30T09:10:29.558Z,14.50
2019-04-30T09:12:59.823Z,14.50
2019-04-30T09:15:29.569Z,14.60
2019-04-30T09:18:03.506Z,14.80
2019-04-30T09:20:30.312Z,15.10
2019-04-30T09:22:59.912Z,15.20
2019-04-30T09:25:29.228Z,15.20
2019-04-30T09:27:58.939Z,15.40
2019-04-30T09:30:29.948Z,15.40
2019-04-30T09:32:59.796Z,15.20
2019-04-30T09:35:31.761Z,15.20
2019-04-30T09:38:01.952Z,15.50
2019-04-30T09:40:32.619Z,15.70
2019-04-30T09:43:02.059Z,15.60
2019-04-30T09:45:31.603Z,15.70
2019-04-30T09:48:00.891Z,15.80
2019-04-30T09:50:30.285Z,15.70
2019-04-30T09:53:00.402Z,15.80
2019-04-30T09:55:30.190Z,15.70
2019-04-30T09:57:59.569Z,15.90
2019-04-30T10:00:29.624Z,16.20
2019-04-30T10:03:00.041Z,16.40
2019-04-30T10:05:29.675Z,16.80
2019-04-30T10:07:59.511Z,16.80
2019-04-30T10:10:34.523Z,16.90
2019-04-30T10:13:03.847Z,16.80
2019-04-30T10:15:43.044Z,16.70
2019-04-30T10:18:12.349Z,16.70
2019-04-30T10:20:43.352Z,16.90
2019-04-30T10:23:13.130Z,16.80
2019-04-30T10:25:42.403Z,16.70
2019-04-30T10:28:11.700Z,16.70
2019-04-30T10:30:41.094Z,16.60
2019-04-30T10:33:10.574Z,16.60
2019-04-30T10:35:39.882Z,16.70
2019-04-30T10:38:09.837Z,16.60
2019-04-30T10:40:39.348Z,16.60
2019-04-30T10:43:09.059Z,16.70
2019-04-30T10:45:39.110Z,16.80
2019-04-30T10:48:08.415Z,17.00
2019-04-30T10:50:40.763Z,17.20
2019-04-30T10:53:12.189Z,17.30
2019-04-30T10:55:40.398Z,17.50
2019-04-30T10:58:09.696Z,17.50
2019-04-30T11:00:41.047Z,17.50
2019-04-30T11:03:19.100Z,17.50
2019-04-30T11:05:41.565Z,17.50
2019-04-30T11:08:11.228Z,17.30
2019-04-30T11:10:40.806Z,17.50
2019-04-30T11:13:10.700Z,17.60
2019-04-30T11:15:40.024Z,17.50
2019-04-30T11:18:09.515Z,17.60
2019-04-30T11:20:39.831Z,17.40
2019-04-30T11:23:14.638Z,17.50
2019-04-30T11:25:41.843Z,17.60
2019-04-30T11:28:12.332Z,17.70
2019-04-30T11:30:42.104Z,17.70
2019-04-30T11:33:12.018Z,17.80
2019-04-30T11:35:41.719Z,17.90
2019-04-30T11:38:11.316Z,18.00
2019-04-30T11:40:40.925Z,18.10
2019-04-30T11:43:10.183Z,18.30
2019-04-30T11:46:21.492Z,18.50
2019-04-30T11:48:51.039Z,18.60
2019-04-30T11:51:20.507Z,18.70
2019-04-30T11:53:49.833Z,18.70
2019-04-30T11:56:19.553Z,18.60
2019-04-30T11:58:48.991Z,18.60
2019-04-30T12:01:20.526Z,18.80
2019-04-30T12:03:49.902Z,18.60
2019-04-30T12:06:20.948Z,18.50
2019-04-30T12:09:15.293Z,18.50
2019-04-30T12:11:44.601Z,18.60
2019-04-30T12:14:14.303Z,18.70
2019-04-30T12:16:43.888Z,18.90
2019-04-30T12:19:13.243Z,18.90
2019-04-30T12:21:42.633Z,18.90
2019-04-30T12:24:12.235Z,18.70
2019-04-30T12:26:41.516Z,18.70
2019-04-30T12:29:11.247Z,18.70
2019-04-30T12:31:40.665Z,18.40
2019-04-30T12:34:10.229Z,18.50
2019-04-30T12:36:39.535Z,18.60
2019-04-30T12:39:09.342Z,18.80
2019-04-30T12:41:40.619Z,18.90
2019-04-30T12:44:10.052Z,19.00
2019-04-30T12:46:39.356Z,19.00
2019-04-30T12:49:11.448Z,18.60
2019-04-30T12:52:00.748Z,18.50
2019-04-30T12:54:35.394Z,18.30
2019-04-30T12:57:29.339Z,18.20
2019-04-30T13:00:00.374Z,18.30
2019-04-30T13:02:30.415Z,18.60
2019-04-30T13:05:00.559Z,18.80
2019-04-30T13:07:30.901Z,18.80
2019-04-30T13:10:02.368Z,18.80
2019-04-30T13:12:32.577Z,18.80
2019-04-30T13:15:02.768Z,18.90
2019-04-30T13:17:32.168Z,19.00
2019-04-30T13:20:01.721Z,19.10
2019-04-30T13:22:31.021Z,19.30
2019-04-30T13:25:00.730Z,19.40
2019-04-30T13:27:32.409Z,19.20
2019-04-30T13:30:08.617Z,19.20
2019-04-30T13:32:44.471Z,19.10
2019-04-30T13:35:14.080Z,19.20
2019-04-30T13:37:49.273Z,19.00
2019-04-30T13:40:34.595Z,19.10
2019-04-30T13:43:07.037Z,19.30
2019-04-30T13:45:36.291Z,19.20
2019-04-30T13:48:05.588Z,19.00
2019-04-30T13:50:34.934Z,19.00
2019-04-30T13:53:04.540Z,19.20
2019-04-30T13:55:43.648Z,19.40
2019-04-30T13:58:04.882Z,19.70
2019-04-30T14:00:35.768Z,19.90
2019-04-30T14:03:26.883Z,19.90
2019-04-30T14:05:56.324Z,19.50
2019-04-30T14:08:34.196Z,19.20
2019-04-30T14:11:03.616Z,19.10
2019-04-30T14:13:32.923Z,18.90
2019-04-30T14:16:02.341Z,18.90
2019-04-30T14:18:34.166Z,19.10
2019-04-30T14:21:02.796Z,19.40
2019-04-30T14:23:33.602Z,19.70
2019-04-30T14:26:03.235Z,20.10
2019-04-30T14:28:33.985Z,20.40
2019-04-30T14:31:03.665Z,20.50
2019-04-30T14:33:33.284Z,20.10
2019-04-30T14:36:02.841Z,19.80
2019-04-30T14:38:32.494Z,19.50
2019-04-30T14:41:02.540Z,19.30
2019-04-30T14:43:57.188Z,19.20
2019-04-30T14:46:36.733Z,19.20
2019-04-30T14:49:26.365Z,19.30
2019-04-30T14:52:14.937Z,19.50
2019-04-30T14:55:05.136Z,19.70
2019-04-30T14:57:51.996Z,19.90
2019-04-30T15:00:55.372Z,20.20
2019-04-30T15:03:26.060Z,20.00
2019-04-30T15:05:55.622Z,19.80
2019-04-30T15:08:25.206Z,19.90
2019-04-30T15:10:57.953Z,19.90
2019-04-30T15:13:29.409Z,19.80
2019-04-30T15:15:58.754Z,19.60
2019-04-30T15:18:29.018Z,19.60
2019-04-30T15:20:59.435Z,19.70
2019-04-30T15:23:40.256Z,19.80
2019-04-30T15:26:21.627Z,19.90
2019-04-30T15:28:42.598Z,20.40
2019-04-30T15:31:15.339Z,21.30
2019-04-30T15:34:02.614Z,22.20
2019-04-30T15:36:25.470Z,22.60
2019-04-30T15:39:26.394Z,22.10
2019-04-30T15:41:58.279Z,21.80
2019-04-30T15:44:27.655Z,20.90
2019-04-30T15:47:00.352Z,20.40
2019-04-30T15:49:28.459Z,20.10
2019-04-30T15:51:58.471Z,19.80
2019-04-30T15:54:29.240Z,19.80
2019-04-30T15:57:00.419Z,19.80
2019-04-30T15:59:39.365Z,19.90
2019-04-30T16:02:16.936Z,20.20
2019-04-30T16:05:09.367Z,20.30
2019-04-30T16:07:44.336Z,20.30
2019-04-30T16:10:33.112Z,20.20
2019-04-30T16:13:09.681Z,20.00
2019-04-30T16:15:39.042Z,19.80
2019-04-30T16:18:09.763Z,19.70
2019-04-30T16:20:39.418Z,19.50
2019-04-30T16:23:09.205Z,19.30
2019-04-30T16:25:39.548Z,19.30
2019-04-30T16:28:10.135Z,19.30
2019-04-30T16:30:39.566Z,19.20
2019-04-30T16:33:09.561Z,19.20
2019-04-30T16:35:39.216Z,19.10
2019-04-30T16:38:09.288Z,18.90
2019-04-30T16:40:38.817Z,18.80
2019-04-30T16:43:08.520Z,18.60
2019-04-30T16:45:38.923Z,18.40
2019-04-30T16:48:10.085Z,18.10
2019-04-30T16:50:39.376Z,18.10
2019-04-30T16:53:09.117Z,18.10
2019-04-30T16:55:39.070Z,18.20
2019-04-30T16:58:09.058Z,18.50
2019-04-30T17:00:39.228Z,18.70
2019-04-30T17:03:16.156Z,18.80
2019-04-30T17:05:50.478Z,18.70
2019-04-30T17:08:32.010Z,18.60
2019-04-30T17:11:10.742Z,18.30
2019-04-30T17:13:51.202Z,18.10
2019-04-30T17:16:30.295Z,18.00
2019-04-30T17:19:11.116Z,18.00
2019-04-30T17:21:41.505Z,17.80
2019-04-30T17:24:14.043Z,17.60
2019-04-30T17:26:42.714Z,17.60
2019-04-30T17:29:15.426Z,17.50
2019-04-30T17:31:46.239Z,17.50
2019-04-30T17:34:45.041Z,17.30
2019-04-30T17:37:14.623Z,17.20
2019-04-30T17:39:44.200Z,17.10
2019-04-30T17:42:13.504Z,17.10
2019-04-30T17:44:54.073Z,17.00
2019-04-30T17:47:14.046Z,17.00
2019-04-30T17:49:43.615Z,16.90
2019-04-30T17:52:12.908Z,16.70
2019-04-30T17:54:42.256Z,16.60
2019-04-30T17:57:11.887Z,16.50
2019-04-30T17:59:41.523Z,16.40
2019-04-30T18:02:12.401Z,16.30
2019-04-30T18:04:42.882Z,16.20
2019-04-30T18:07:12.473Z,16.20
2019-04-30T18:09:42.094Z,16.10
2019-04-30T18:12:11.945Z,16.00
2019-04-30T18:14:41.275Z,15.90
2019-04-30T18:17:10.635Z,15.90
2019-04-30T18:19:45.926Z,15.80
2019-04-30T18:22:37.428Z,15.80
2019-04-30T18:25:13.052Z,15.70
2019-04-30T18:27:49.579Z,15.60
2019-04-30T18:30:21.351Z,15.50
2019-04-30T18:32:50.972Z,15.40
2019-04-30T18:35:20.429Z,15.30
2019-04-30T18:37:49.983Z,15.20
2019-04-30T18:40:19.359Z,15.10
2019-04-30T18:42:49.513Z,15.10
2019-04-30T18:45:19.437Z,15.00
2019-04-30T18:47:48.883Z,15.00
2019-04-30T18:50:18.656Z,14.90
2019-04-30T18:52:50.721Z,14.90
2019-04-30T18:55:20.115Z,14.80
2019-04-30T18:57:56.449Z,14.80
2019-04-30T19:00:31.745Z,14.70
2019-04-30T19:03:01.045Z,14.70
2019-04-30T19:05:31.199Z,14.60
2019-04-30T19:08:05.812Z,14.50
2019-04-30T19:11:05.962Z,14.50
2019-04-30T19:14:09.627Z,14.40
2019-04-30T19:16:56.511Z,14.30
2019-04-30T19:19:41.539Z,14.30
2019-04-30T19:22:11.100Z,14.20
2019-04-30T19:24:52.210Z,14.20
2019-04-30T19:27:11.557Z,14.10
2019-04-30T19:29:40.857Z,14.00
2019-04-30T19:32:10.188Z,14.00
2019-04-30T19:34:39.459Z,13.90
2019-04-30T19:37:08.795Z,13.90
2019-04-30T19:39:39.226Z,13.90
2019-04-30T19:42:09.019Z,13.90
2019-04-30T19:44:39.498Z,13.90
2019-04-30T19:47:09.362Z,13.80
2019-04-30T19:49:40.707Z,13.80
2019-04-30T19:52:11.814Z,13.70
2019-04-30T19:54:41.200Z,13.70
2019-04-30T19:57:10.755Z,13.60
2019-04-30T19:59:40.281Z,13.60
2019-04-30T20:02:10.713Z,13.60
2019-04-30T20:04:42.132Z,13.60
2019-04-30T20:07:11.349Z,13.50
2019-04-30T20:09:43.042Z,13.50
2019-04-30T20:12:11.880Z,13.50
2019-04-30T20:14:41.586Z,13.40
2019-04-30T20:17:13.135Z,13.50
2019-04-30T20:19:41.882Z,13.40
2019-04-30T20:22:11.242Z,13.30
2019-04-30T20:24:40.944Z,13.30
2019-04-30T20:27:10.466Z,13.20
2019-04-30T20:29:40.914Z,13.20
2019-04-30T20:32:10.299Z,13.10
2019-04-30T20:34:40.102Z,13.10
2019-04-30T20:37:09.418Z,13.00
2019-04-30T20:39:52.958Z,12.90
2019-04-30T20:42:22.259Z,12.90
2019-04-30T20:44:51.528Z,12.80
2019-04-30T20:47:21.161Z,12.90
2019-04-30T20:49:50.946Z,12.80
2019-04-30T20:52:20.717Z,12.80
2019-04-30T20:54:50.400Z,12.80
2019-04-30T20:57:19.999Z,12.80
2019-04-30T20:59:49.340Z,12.80
2019-04-30T21:02:20.455Z,12.70
2019-04-30T21:04:49.915Z,12.70
2019-04-30T21:07:19.576Z,12.60
2019-04-30T21:09:49.030Z,12.50
2019-04-30T21:12:18.798Z,12.50
2019-04-30T21:14:48.623Z,12.40
2019-04-30T21:17:17.996Z,12.40
2019-04-30T21:19:47.266Z,12.30
2019-04-30T21:22:16.930Z,12.20
2019-04-30T21:24:46.887Z,12.20
2019-04-30T21:27:16.171Z,12.20
2019-04-30T21:29:49.259Z,12.20
2019-04-30T21:32:23.755Z,12.10
2019-04-30T21:34:57.392Z,12.10
2019-04-30T21:37:27.004Z,12.00
2019-04-30T21:39:58.226Z,12.00
2019-04-30T21:42:27.723Z,12.00
2019-04-30T21:44:57.112Z,12.00
2019-04-30T21:47:27.078Z,12.00
2019-04-30T21:49:56.419Z,11.90
2019-04-30T21:52:25.703Z,11.90
2019-04-30T21:54:55.579Z,11.80
2019-04-30T21:57:24.975Z,11.80
2019-04-30T21:59:54.582Z,11.70
2019-04-30T22:02:24.139Z,11.70
2019-04-30T22:04:53.444Z,11.70
2019-04-30T22:07:22.738Z,11.70
2019-04-30T22:09:52.116Z,11.60
2019-04-30T22:12:21.812Z,11.60
2019-04-30T22:14:51.389Z,11.60
2019-04-30T22:17:20.654Z,11.60
2019-04-30T22:19:51.664Z,11.50
2019-04-30T22:22:21.568Z,11.50
2019-04-30T22:24:51.007Z,11.50
2019-04-30T22:27:20.298Z,11.40
2019-04-30T22:29:49.683Z,11.40
2019-04-30T22:32:19.260Z,11.30
2019-04-30T22:34:48.681Z,11.30
2019-04-30T22:37:19.544Z,11.30
2019-04-30T22:39:55.735Z,11.30
2019-04-30T22:42:33.901Z,11.30
2019-04-30T22:45:05.838Z,11.30
2019-04-30T22:47:35.438Z,11.20
2019-04-30T22:50:06.149Z,11.20
2019-04-30T22:52:35.493Z,11.20
2019-04-30T22:55:05.039Z,11.20
2019-04-30T22:57:34.821Z,11.20
2019-04-30T23:00:04.876Z,11.20
2019-04-30T23:02:43.512Z,11.10
2019-04-30T23:05:14.846Z,11.10
2019-04-30T23:07:44.478Z,11.00
2019-04-30T23:10:13.760Z,11.10
2019-04-30T23:12:43.059Z,11.00
2019-04-30T23:15:12.798Z,10.90
2019-04-30T23:17:42.107Z,10.90
2019-04-30T23:20:12.127Z,10.90
2019-04-30T23:22:41.556Z,10.80
2019-04-30T23:25:11.127Z,10.80
2019-04-30T23:27:40.433Z,10.80
2019-04-30T23:30:10.248Z,10.70
2019-04-30T23:32:40.927Z,10.70
2019-04-30T23:35:10.633Z,10.60
2019-04-30T23:37:40.200Z,10.60
2019-04-30T23:40:24.190Z,10.60
2019-04-30T23:42:54.101Z,10.60
2019-04-30T23:45:23.743Z,10.60
2019-04-30T23:47:53.158Z,10.60
2019-04-30T23:50:22.842Z,10.60
2019-04-30T23:52:52.487Z,10.60
2019-04-30T23:55:21.816Z,10.50
2019-04-30T23:57:51.080Z,10.50
